sensor_id;sensor_type;location;lat;lon;timestamp;P1;durP1;ratioP1;P2;durP2;ratioP2
43877;SDS011;29815;48.184;11.268;2022-10-18T00:09:10;10.75;;;3.72;;
43877;SDS011;29815;48.184;11.268;2022-10-18T00:11:40;7.13;;;4.22;;
43877;SDS011;29815;48.184;11.268;2022-10-18T00:14:09;5.30;;;3.83;;
43877;SDS011;29815;48.184;11.268;2022-10-18T00:16:39;5.47;;;3.90;;
43877;SDS011;29815;48.184;11.268;2022-10-18T00:19:09;6.97;;;4.05;;
43877;SDS011;29815;48.184;11.268;2022-10-18T00:21:38;4.97;;;4.10;;
43877;SDS011;29815;48.184;11.268;2022-10-18T00:24:14;8.32;;;4.32;;
43877;SDS011;29815;48.184;11.268;2022-10-18T00:26:44;6.93;;;4.47;;
43877;SDS011;29815;48.184;11.268;2022-10-18T00:29:14;6.07;;;3.70;;
43877;SDS011;29815;48.184;11.268;2022-10-18T00:31:44;6.18;;;4.90;;
43877;SDS011;29815;48.184;11.268;2022-10-18T00:34:13;5.93;;;4.45;;
43877;SDS011;29815;48.184;11.268;2022-10-18T00:36:45;6.20;;;4.63;;
43877;SDS011;29815;48.184;11.268;2022-10-18T00:39:15;7.82;;;5.18;;
43877;SDS011;29815;48.184;11.268;2022-10-18T00:47:50;8.63;;;4.00;;
43877;SDS011;29815;48.184;11.268;2022-10-18T00:50:24;7.05;;;4.88;;
43877;SDS011;29815;48.184;11.268;2022-10-18T00:53:01;7.47;;;4.30;;
43877;SDS011;29815;48.184;11.268;2022-10-18T00:55:36;6.47;;;4.95;;
43877;SDS011;29815;48.184;11.268;2022-10-18T00:58:05;7.38;;;5.72;;
43877;SDS011;29815;48.184;11.268;2022-10-18T01:00:36;5.03;;;4.38;;
43877;SDS011;29815;48.184;11.268;2022-10-18T01:03:07;4.75;;;4.05;;
43877;SDS011;29815;48.184;11.268;2022-10-18T01:05:39;6.55;;;4.30;;
43877;SDS011;29815;48.184;11.268;2022-10-18T01:08:22;9.63;;;5.28;;
43877;SDS011;29815;48.184;11.268;2022-10-18T01:11:10;8.63;;;4.38;;
43877;SDS011;29815;48.184;11.268;2022-10-18T01:14:25;5.68;;;4.30;;
43877;SDS011;29815;48.184;11.268;2022-10-18T01:17:19;10.52;;;4.68;;
43877;SDS011;29815;48.184;11.268;2022-10-18T01:20:13;8.23;;;5.90;;
43877;SDS011;29815;48.184;11.268;2022-10-18T01:23:34;10.93;;;6.20;;
43877;SDS011;29815;48.184;11.268;2022-10-18T01:27:31;14.75;;;7.13;;
43877;SDS011;29815;48.184;11.268;2022-10-18T01:30:27;9.20;;;6.57;;
43877;SDS011;29815;48.184;11.268;2022-10-18T01:33:20;7.85;;;6.35;;
43877;SDS011;29815;48.184;11.268;2022-10-18T01:35:59;5.13;;;4.50;;
43877;SDS011;29815;48.184;11.268;2022-10-18T01:38:36;10.00;;;5.25;;
43877;SDS011;29815;48.184;11.268;2022-10-18T01:41:08;6.65;;;5.40;;
43877;SDS011;29815;48.184;11.268;2022-10-18T01:43:42;8.77;;;6.18;;
43877;SDS011;29815;48.184;11.268;2022-10-18T01:46:18;8.38;;;6.25;;
43877;SDS011;29815;48.184;11.268;2022-10-18T01:48:51;8.70;;;6.00;;
43877;SDS011;29815;48.184;11.268;2022-10-18T01:51:23;8.18;;;5.28;;
43877;SDS011;29815;48.184;11.268;2022-10-18T01:53:54;8.57;;;6.73;;
43877;SDS011;29815;48.184;11.268;2022-10-18T01:56:27;6.85;;;5.80;;
43877;SDS011;29815;48.184;11.268;2022-10-18T01:59:11;6.72;;;5.38;;
43877;SDS011;29815;48.184;11.268;2022-10-18T02:02:06;7.38;;;5.60;;
43877;SDS011;29815;48.184;11.268;2022-10-18T02:04:59;7.75;;;5.10;;
43877;SDS011;29815;48.184;11.268;2022-10-18T02:07:42;8.68;;;4.78;;
43877;SDS011;29815;48.184;11.268;2022-10-18T02:10:40;9.00;;;5.00;;
43877;SDS011;29815;48.184;11.268;2022-10-18T02:13:20;5.38;;;4.70;;
43877;SDS011;29815;48.184;11.268;2022-10-18T02:15:53;6.43;;;4.47;;
43877;SDS011;29815;48.184;11.268;2022-10-18T02:18:33;8.15;;;4.95;;
43877;SDS011;29815;48.184;11.268;2022-10-18T02:21:09;9.20;;;4.57;;
43877;SDS011;29815;48.184;11.268;2022-10-18T02:23:43;8.40;;;5.38;;
43877;SDS011;29815;48.184;11.268;2022-10-18T02:26:14;6.90;;;5.38;;
43877;SDS011;29815;48.184;11.268;2022-10-18T02:28:44;9.02;;;5.53;;
43877;SDS011;29815;48.184;11.268;2022-10-18T02:31:14;7.88;;;5.13;;
43877;SDS011;29815;48.184;11.268;2022-10-18T02:33:52;7.10;;;4.82;;
43877;SDS011;29815;48.184;11.268;2022-10-18T02:36:27;6.93;;;5.10;;
43877;SDS011;29815;48.184;11.268;2022-10-18T02:39:10;6.10;;;4.28;;
43877;SDS011;29815;48.184;11.268;2022-10-18T02:41:44;7.07;;;4.63;;
43877;SDS011;29815;48.184;11.268;2022-10-18T02:44:14;7.35;;;4.30;;
43877;SDS011;29815;48.184;11.268;2022-10-18T02:46:44;6.13;;;4.57;;
43877;SDS011;29815;48.184;11.268;2022-10-18T02:49:16;5.32;;;4.78;;
43877;SDS011;29815;48.184;11.268;2022-10-18T02:51:45;9.13;;;5.55;;
43877;SDS011;29815;48.184;11.268;2022-10-18T02:54:15;7.32;;;4.85;;
43877;SDS011;29815;48.184;11.268;2022-10-18T02:56:44;6.53;;;4.45;;
43877;SDS011;29815;48.184;11.268;2022-10-18T02:59:14;8.27;;;4.25;;
43877;SDS011;29815;48.184;11.268;2022-10-18T03:01:43;6.72;;;4.22;;
43877;SDS011;29815;48.184;11.268;2022-10-18T03:04:13;7.65;;;4.57;;
43877;SDS011;29815;48.184;11.268;2022-10-18T03:06:44;5.03;;;3.85;;
43877;SDS011;29815;48.184;11.268;2022-10-18T03:09:13;6.25;;;4.28;;
43877;SDS011;29815;48.184;11.268;2022-10-18T03:11:42;7.63;;;4.53;;
43877;SDS011;29815;48.184;11.268;2022-10-18T03:14:12;5.80;;;4.00;;
43877;SDS011;29815;48.184;11.268;2022-10-18T03:16:42;6.05;;;4.43;;
43877;SDS011;29815;48.184;11.268;2022-10-18T03:19:12;5.63;;;4.30;;
43877;SDS011;29815;48.184;11.268;2022-10-18T03:21:43;9.43;;;4.55;;
43877;SDS011;29815;48.184;11.268;2022-10-18T03:24:12;6.32;;;4.15;;
43877;SDS011;29815;48.184;11.268;2022-10-18T03:26:51;6.68;;;4.45;;
43877;SDS011;29815;48.184;11.268;2022-10-18T03:29:21;7.72;;;4.93;;
43877;SDS011;29815;48.184;11.268;2022-10-18T03:31:50;6.50;;;4.63;;
43877;SDS011;29815;48.184;11.268;2022-10-18T03:34:20;6.97;;;4.85;;
43877;SDS011;29815;48.184;11.268;2022-10-18T03:36:50;8.15;;;4.70;;
43877;SDS011;29815;48.184;11.268;2022-10-18T03:39:21;6.20;;;4.50;;
43877;SDS011;29815;48.184;11.268;2022-10-18T03:41:50;8.90;;;5.18;;
43877;SDS011;29815;48.184;11.268;2022-10-18T03:44:19;7.63;;;4.60;;
43877;SDS011;29815;48.184;11.268;2022-10-18T03:46:49;6.30;;;4.47;;
43877;SDS011;29815;48.184;11.268;2022-10-18T03:49:18;10.13;;;4.60;;
43877;SDS011;29815;48.184;11.268;2022-10-18T03:51:48;5.80;;;4.78;;
43877;SDS011;29815;48.184;11.268;2022-10-18T03:54:19;6.78;;;4.55;;
43877;SDS011;29815;48.184;11.268;2022-10-18T03:56:48;6.40;;;4.85;;
43877;SDS011;29815;48.184;11.268;2022-10-18T03:59:18;7.35;;;4.32;;
43877;SDS011;29815;48.184;11.268;2022-10-18T04:01:47;5.65;;;3.53;;
43877;SDS011;29815;48.184;11.268;2022-10-18T04:04:17;13.57;;;6.95;;
43877;SDS011;29815;48.184;11.268;2022-10-18T04:06:47;10.52;;;4.72;;
43877;SDS011;29815;48.184;11.268;2022-10-18T04:09:17;7.60;;;5.00;;
43877;SDS011;29815;48.184;11.268;2022-10-18T04:11:48;8.35;;;4.90;;
43877;SDS011;29815;48.184;11.268;2022-10-18T04:14:18;9.90;;;4.45;;
43877;SDS011;29815;48.184;11.268;2022-10-18T04:16:48;5.68;;;4.35;;
43877;SDS011;29815;48.184;11.268;2022-10-18T04:19:17;6.68;;;4.05;;
43877;SDS011;29815;48.184;11.268;2022-10-18T04:21:47;9.88;;;5.85;;
43877;SDS011;29815;48.184;11.268;2022-10-18T04:24:18;6.32;;;4.68;;
43877;SDS011;29815;48.184;11.268;2022-10-18T04:26:47;9.55;;;4.80;;
43877;SDS011;29815;48.184;11.268;2022-10-18T04:29:16;7.53;;;4.72;;
43877;SDS011;29815;48.184;11.268;2022-10-18T04:31:46;5.93;;;4.28;;
43877;SDS011;29815;48.184;11.268;2022-10-18T04:34:15;6.75;;;4.45;;
43877;SDS011;29815;48.184;11.268;2022-10-18T04:36:45;7.22;;;4.03;;
43877;SDS011;29815;48.184;11.268;2022-10-18T04:39:14;6.18;;;4.28;;
43877;SDS011;29815;48.184;11.268;2022-10-18T04:41:45;6.57;;;4.63;;
43877;SDS011;29815;48.184;11.268;2022-10-18T04:44:15;6.85;;;5.40;;
43877;SDS011;29815;48.184;11.268;2022-10-18T04:46:44;5.97;;;4.70;;
43877;SDS011;29815;48.184;11.268;2022-10-18T04:49:14;6.88;;;4.35;;
43877;SDS011;29815;48.184;11.268;2022-10-18T04:51:43;6.50;;;4.93;;
43877;SDS011;29815;48.184;11.268;2022-10-18T04:54:12;7.15;;;5.30;;
43877;SDS011;29815;48.184;11.268;2022-10-18T04:56:42;7.13;;;5.10;;
43877;SDS011;29815;48.184;11.268;2022-10-18T04:59:13;8.02;;;4.93;;
43877;SDS011;29815;48.184;11.268;2022-10-18T05:01:42;6.75;;;4.85;;
43877;SDS011;29815;48.184;11.268;2022-10-18T05:04:12;5.72;;;4.68;;
43877;SDS011;29815;48.184;11.268;2022-10-18T05:06:41;6.38;;;4.60;;
43877;SDS011;29815;48.184;11.268;2022-10-18T05:09:11;12.65;;;5.68;;
43877;SDS011;29815;48.184;11.268;2022-10-18T05:11:40;10.20;;;4.75;;
43877;SDS011;29815;48.184;11.268;2022-10-18T05:14:10;7.10;;;4.65;;
43877;SDS011;29815;48.184;11.268;2022-10-18T05:16:40;8.35;;;4.18;;
43877;SDS011;29815;48.184;11.268;2022-10-18T05:19:10;6.43;;;4.90;;
43877;SDS011;29815;48.184;11.268;2022-10-18T05:21:39;8.02;;;4.85;;
43877;SDS011;29815;48.184;11.268;2022-10-18T05:24:09;8.90;;;5.32;;
43877;SDS011;29815;48.184;11.268;2022-10-18T05:26:39;6.68;;;4.80;;
43877;SDS011;29815;48.184;11.268;2022-10-18T05:29:09;7.50;;;4.55;;
43877;SDS011;29815;48.184;11.268;2022-10-18T05:31:38;5.63;;;4.10;;
43877;SDS011;29815;48.184;11.268;2022-10-18T05:34:09;8.85;;;4.80;;
43877;SDS011;29815;48.184;11.268;2022-10-18T05:36:38;8.82;;;4.85;;
43877;SDS011;29815;48.184;11.268;2022-10-18T05:39:08;7.68;;;4.72;;
43877;SDS011;29815;48.184;11.268;2022-10-18T05:41:37;9.35;;;4.78;;
43877;SDS011;29815;48.184;11.268;2022-10-18T05:44:07;6.60;;;4.07;;
43877;SDS011;29815;48.184;11.268;2022-10-18T05:46:37;6.60;;;4.03;;
43877;SDS011;29815;48.184;11.268;2022-10-18T05:49:07;5.15;;;4.13;;
43877;SDS011;29815;48.184;11.268;2022-10-18T05:51:39;6.28;;;4.10;;
43877;SDS011;29815;48.184;11.268;2022-10-18T05:54:09;7.38;;;4.00;;
43877;SDS011;29815;48.184;11.268;2022-10-18T05:56:39;5.57;;;3.95;;
43877;SDS011;29815;48.184;11.268;2022-10-18T05:59:09;5.57;;;4.45;;
43877;SDS011;29815;48.184;11.268;2022-10-18T06:01:39;5.53;;;4.07;;
43877;SDS011;29815;48.184;11.268;2022-10-18T06:04:11;6.25;;;4.47;;
43877;SDS011;29815;48.184;11.268;2022-10-18T06:06:41;6.60;;;4.75;;
43877;SDS011;29815;48.184;11.268;2022-10-18T06:09:10;5.60;;;4.82;;
43877;SDS011;29815;48.184;11.268;2022-10-18T06:11:40;5.63;;;3.63;;
43877;SDS011;29815;48.184;11.268;2022-10-18T06:14:09;6.85;;;4.70;;
43877;SDS011;29815;48.184;11.268;2022-10-18T06:16:39;7.78;;;4.10;;
43877;SDS011;29815;48.184;11.268;2022-10-18T06:19:08;6.28;;;3.97;;
43877;SDS011;29815;48.184;11.268;2022-10-18T06:21:39;9.75;;;3.95;;
43877;SDS011;29815;48.184;11.268;2022-10-18T06:24:08;6.85;;;4.45;;
43877;SDS011;29815;48.184;11.268;2022-10-18T06:26:38;7.53;;;4.60;;
43877;SDS011;29815;48.184;11.268;2022-10-18T06:29:07;6.55;;;4.63;;
43877;SDS011;29815;48.184;11.268;2022-10-18T06:31:36;4.68;;;3.75;;
43877;SDS011;29815;48.184;11.268;2022-10-18T06:34:06;7.78;;;4.53;;
43877;SDS011;29815;48.184;11.268;2022-10-18T06:36:35;10.10;;;3.85;;
43877;SDS011;29815;48.184;11.268;2022-10-18T06:39:06;8.05;;;4.43;;
43877;SDS011;29815;48.184;11.268;2022-10-18T06:41:35;8.55;;;4.10;;
43877;SDS011;29815;48.184;11.268;2022-10-18T06:44:18;4.90;;;4.05;;
43877;SDS011;29815;48.184;11.268;2022-10-18T06:46:48;6.38;;;4.07;;
43877;SDS011;29815;48.184;11.268;2022-10-18T06:49:19;5.03;;;3.58;;
43877;SDS011;29815;48.184;11.268;2022-10-18T06:51:49;6.78;;;4.00;;
43877;SDS011;29815;48.184;11.268;2022-10-18T06:54:19;6.80;;;4.28;;
43877;SDS011;29815;48.184;11.268;2022-10-18T06:56:49;6.15;;;4.15;;
43877;SDS011;29815;48.184;11.268;2022-10-18T06:59:23;5.00;;;3.60;;
43877;SDS011;29815;48.184;11.268;2022-10-18T07:01:57;6.82;;;3.58;;
43877;SDS011;29815;48.184;11.268;2022-10-18T07:04:27;4.73;;;3.60;;
43877;SDS011;29815;48.184;11.268;2022-10-18T07:06:56;5.25;;;4.32;;
43877;SDS011;29815;48.184;11.268;2022-10-18T07:09:27;5.40;;;3.63;;
43877;SDS011;29815;48.184;11.268;2022-10-18T07:11:57;5.57;;;3.28;;
43877;SDS011;29815;48.184;11.268;2022-10-18T07:14:26;8.35;;;4.38;;
43877;SDS011;29815;48.184;11.268;2022-10-18T07:16:57;4.55;;;3.70;;
43877;SDS011;29815;48.184;11.268;2022-10-18T07:19:27;6.70;;;3.83;;
43877;SDS011;29815;48.184;11.268;2022-10-18T07:21:56;7.00;;;3.78;;
43877;SDS011;29815;48.184;11.268;2022-10-18T07:24:27;8.18;;;3.58;;
43877;SDS011;29815;48.184;11.268;2022-10-18T07:26:57;7.63;;;3.88;;
43877;SDS011;29815;48.184;11.268;2022-10-18T07:29:26;5.68;;;3.92;;
43877;SDS011;29815;48.184;11.268;2022-10-18T07:31:55;4.63;;;3.15;;
43877;SDS011;29815;48.184;11.268;2022-10-18T07:34:25;10.23;;;4.35;;
43877;SDS011;29815;48.184;11.268;2022-10-18T07:36:55;5.68;;;3.15;;
43877;SDS011;29815;48.184;11.268;2022-10-18T07:39:24;7.63;;;3.60;;
43877;SDS011;29815;48.184;11.268;2022-10-18T07:41:55;5.97;;;3.25;;
43877;SDS011;29815;48.184;11.268;2022-10-18T07:44:25;7.45;;;3.40;;
43877;SDS011;29815;48.184;11.268;2022-10-18T07:46:55;8.05;;;3.50;;
43877;SDS011;29815;48.184;11.268;2022-10-18T07:49:24;6.63;;;3.40;;
43877;SDS011;29815;48.184;11.268;2022-10-18T07:51:53;6.68;;;3.47;;
43877;SDS011;29815;48.184;11.268;2022-10-18T07:54:23;4.93;;;2.97;;
43877;SDS011;29815;48.184;11.268;2022-10-18T07:56:52;6.95;;;3.33;;
43877;SDS011;29815;48.184;11.268;2022-10-18T07:59:23;5.43;;;3.60;;
43877;SDS011;29815;48.184;11.268;2022-10-18T08:01:52;9.82;;;5.22;;
43877;SDS011;29815;48.184;11.268;2022-10-18T08:04:22;6.10;;;3.33;;
43877;SDS011;29815;48.184;11.268;2022-10-18T08:06:51;4.38;;;2.60;;
43877;SDS011;29815;48.184;11.268;2022-10-18T08:09:21;5.75;;;3.45;;
43877;SDS011;29815;48.184;11.268;2022-10-18T08:11:50;7.32;;;3.75;;
43877;SDS011;29815;48.184;11.268;2022-10-18T08:14:21;5.55;;;3.60;;
43877;SDS011;29815;48.184;11.268;2022-10-18T08:16:50;4.07;;;3.08;;
43877;SDS011;29815;48.184;11.268;2022-10-18T08:19:20;6.40;;;3.60;;
43877;SDS011;29815;48.184;11.268;2022-10-18T08:21:49;4.10;;;3.33;;
43877;SDS011;29815;48.184;11.268;2022-10-18T08:24:19;8.43;;;3.83;;
43877;SDS011;29815;48.184;11.268;2022-10-18T08:26:49;7.97;;;3.38;;
43877;SDS011;29815;48.184;11.268;2022-10-18T08:29:18;7.80;;;3.80;;
43877;SDS011;29815;48.184;11.268;2022-10-18T08:31:55;5.07;;;3.63;;
43877;SDS011;29815;48.184;11.268;2022-10-18T08:34:24;4.35;;;3.42;;
43877;SDS011;29815;48.184;11.268;2022-10-18T08:36:54;7.57;;;3.75;;
43877;SDS011;29815;48.184;11.268;2022-10-18T08:39:23;4.00;;;3.13;;
43877;SDS011;29815;48.184;11.268;2022-10-18T08:42:00;6.03;;;3.53;;
43877;SDS011;29815;48.184;11.268;2022-10-18T08:44:56;5.47;;;3.20;;
43877;SDS011;29815;48.184;11.268;2022-10-18T08:47:44;5.15;;;3.40;;
43877;SDS011;29815;48.184;11.268;2022-10-18T08:50:19;7.30;;;3.88;;
43877;SDS011;29815;48.184;11.268;2022-10-18T08:52:55;7.88;;;3.10;;
43877;SDS011;29815;48.184;11.268;2022-10-18T08:55:35;7.47;;;3.33;;
43877;SDS011;29815;48.184;11.268;2022-10-18T08:58:13;8.32;;;2.83;;
43877;SDS011;29815;48.184;11.268;2022-10-18T09:00:51;4.47;;;3.00;;
43877;SDS011;29815;48.184;11.268;2022-10-18T09:03:43;4.07;;;3.13;;
43877;SDS011;29815;48.184;11.268;2022-10-18T09:07:44;6.18;;;3.25;;
43877;SDS011;29815;48.184;11.268;2022-10-18T09:10:41;5.43;;;3.30;;
43877;SDS011;29815;48.184;11.268;2022-10-18T09:13:35;3.85;;;2.75;;
43877;SDS011;29815;48.184;11.268;2022-10-18T09:16:32;3.60;;;2.75;;
43877;SDS011;29815;48.184;11.268;2022-10-18T09:19:15;6.60;;;3.20;;
43877;SDS011;29815;48.184;11.268;2022-10-18T09:21:59;3.90;;;3.17;;
43877;SDS011;29815;48.184;11.268;2022-10-18T09:24:39;5.72;;;3.63;;
43877;SDS011;29815;48.184;11.268;2022-10-18T09:27:19;6.70;;;3.92;;
43877;SDS011;29815;48.184;11.268;2022-10-18T09:29:57;7.95;;;3.97;;
43877;SDS011;29815;48.184;11.268;2022-10-18T09:32:40;6.22;;;4.20;;
43877;SDS011;29815;48.184;11.268;2022-10-18T09:37:52;6.82;;;3.50;;
43877;SDS011;29815;48.184;11.268;2022-10-18T09:40:42;4.57;;;3.35;;
43877;SDS011;29815;48.184;11.268;2022-10-18T09:43:22;6.55;;;3.28;;
43877;SDS011;29815;48.184;11.268;2022-10-18T09:45:59;4.10;;;3.45;;
43877;SDS011;29815;48.184;11.268;2022-10-18T09:48:34;4.50;;;3.22;;
43877;SDS011;29815;48.184;11.268;2022-10-18T09:51:14;5.87;;;3.57;;
43877;SDS011;29815;48.184;11.268;2022-10-18T09:54:00;4.13;;;2.78;;
43877;SDS011;29815;48.184;11.268;2022-10-18T09:56:46;5.15;;;3.45;;
43877;SDS011;29815;48.184;11.268;2022-10-18T09:59:26;5.05;;;3.40;;
43877;SDS011;29815;48.184;11.268;2022-10-18T10:02:04;5.05;;;3.90;;
43877;SDS011;29815;48.184;11.268;2022-10-18T10:04:38;5.90;;;3.53;;
43877;SDS011;29815;48.184;11.268;2022-10-18T10:07:08;7.57;;;3.45;;
43877;SDS011;29815;48.184;11.268;2022-10-18T10:09:46;6.60;;;3.50;;
43877;SDS011;29815;48.184;11.268;2022-10-18T10:12:26;7.65;;;3.60;;
43877;SDS011;29815;48.184;11.268;2022-10-18T10:15:11;6.13;;;3.78;;
43877;SDS011;29815;48.184;11.268;2022-10-18T10:17:52;6.00;;;3.70;;
43877;SDS011;29815;48.184;11.268;2022-10-18T10:20:28;4.68;;;3.35;;
43877;SDS011;29815;48.184;11.268;2022-10-18T10:23:07;5.72;;;3.25;;
43877;SDS011;29815;48.184;11.268;2022-10-18T10:25:49;11.75;;;4.03;;
43877;SDS011;29815;48.184;11.268;2022-10-18T10:28:21;6.00;;;3.90;;
43877;SDS011;29815;48.184;11.268;2022-10-18T10:31:01;7.03;;;4.50;;
43877;SDS011;29815;48.184;11.268;2022-10-18T10:36:28;6.53;;;3.83;;
43877;SDS011;29815;48.184;11.268;2022-10-18T10:39:04;6.03;;;4.28;;
43877;SDS011;29815;48.184;11.268;2022-10-18T10:41:39;5.90;;;4.32;;
43877;SDS011;29815;48.184;11.268;2022-10-18T10:44:13;6.65;;;4.55;;
43877;SDS011;29815;48.184;11.268;2022-10-18T10:46:46;5.65;;;4.18;;
43877;SDS011;29815;48.184;11.268;2022-10-18T10:49:18;7.50;;;4.63;;
43877;SDS011;29815;48.184;11.268;2022-10-18T10:52:14;8.73;;;4.57;;
43877;SDS011;29815;48.184;11.268;2022-10-18T10:54:55;5.50;;;4.20;;
43877;SDS011;29815;48.184;11.268;2022-10-18T10:57:48;7.75;;;4.82;;
43877;SDS011;29815;48.184;11.268;2022-10-18T11:00:42;8.07;;;3.93;;
43877;SDS011;29815;48.184;11.268;2022-10-18T11:03:12;5.60;;;4.17;;
43877;SDS011;29815;48.184;11.268;2022-10-18T11:06:01;8.45;;;4.40;;
43877;SDS011;29815;48.184;11.268;2022-10-18T11:08:34;6.18;;;4.20;;
43877;SDS011;29815;48.184;11.268;2022-10-18T11:11:12;5.97;;;3.97;;
43877;SDS011;29815;48.184;11.268;2022-10-18T11:13:54;7.40;;;4.50;;
43877;SDS011;29815;48.184;11.268;2022-10-18T11:16:53;8.40;;;3.60;;
43877;SDS011;29815;48.184;11.268;2022-10-18T11:22:14;6.63;;;4.20;;
43877;SDS011;29815;48.184;11.268;2022-10-18T11:24:49;5.68;;;3.80;;
43877;SDS011;29815;48.184;11.268;2022-10-18T11:27:21;6.93;;;4.07;;
43877;SDS011;29815;48.184;11.268;2022-10-18T11:30:02;6.70;;;3.88;;
43877;SDS011;29815;48.184;11.268;2022-10-18T11:32:56;6.13;;;4.35;;
43877;SDS011;29815;48.184;11.268;2022-10-18T11:35:36;5.38;;;3.20;;
43877;SDS011;29815;48.184;11.268;2022-10-18T11:38:28;7.22;;;3.90;;
43877;SDS011;29815;48.184;11.268;2022-10-18T11:41:13;9.20;;;3.97;;
43877;SDS011;29815;48.184;11.268;2022-10-18T11:43:58;6.72;;;3.40;;
43877;SDS011;29815;48.184;11.268;2022-10-18T11:46:37;6.78;;;3.65;;
43877;SDS011;29815;48.184;11.268;2022-10-18T11:49:26;8.25;;;4.30;;
43877;SDS011;29815;48.184;11.268;2022-10-18T11:52:26;6.10;;;3.47;;
43877;SDS011;29815;48.184;11.268;2022-10-18T11:55:10;3.88;;;2.90;;
43877;SDS011;29815;48.184;11.268;2022-10-18T11:58:04;8.05;;;3.63;;
43877;SDS011;29815;48.184;11.268;2022-10-18T12:01:00;5.80;;;3.03;;
43877;SDS011;29815;48.184;11.268;2022-10-18T12:03:47;8.57;;;3.00;;
43877;SDS011;29815;48.184;11.268;2022-10-18T12:06:27;4.38;;;2.60;;
43877;SDS011;29815;48.184;11.268;2022-10-18T12:09:04;5.78;;;2.97;;
43877;SDS011;29815;48.184;11.268;2022-10-18T12:11:48;5.30;;;2.92;;
43877;SDS011;29815;48.184;11.268;2022-10-18T12:14:26;9.27;;;3.13;;
43877;SDS011;29815;48.184;11.268;2022-10-18T12:17:01;4.55;;;2.63;;
43877;SDS011;29815;48.184;11.268;2022-10-18T12:19:57;7.10;;;3.28;;
43877;SDS011;29815;48.184;11.268;2022-10-18T12:22:33;5.75;;;2.95;;
43877;SDS011;29815;48.184;11.268;2022-10-18T12:25:09;4.45;;;3.33;;
43877;SDS011;29815;48.184;11.268;2022-10-18T12:27:43;4.88;;;3.28;;
43877;SDS011;29815;48.184;11.268;2022-10-18T12:30:25;6.65;;;2.72;;
43877;SDS011;29815;48.184;11.268;2022-10-18T12:33:08;5.20;;;2.50;;
43877;SDS011;29815;48.184;11.268;2022-10-18T12:35:58;5.80;;;3.00;;
43877;SDS011;29815;48.184;11.268;2022-10-18T12:38:44;4.20;;;3.15;;
43877;SDS011;29815;48.184;11.268;2022-10-18T12:41:19;7.15;;;3.45;;
43877;SDS011;29815;48.184;11.268;2022-10-18T12:43:53;4.60;;;2.47;;
43877;SDS011;29815;48.184;11.268;2022-10-18T12:46:45;4.50;;;3.10;;
43877;SDS011;29815;48.184;11.268;2022-10-18T12:49:20;6.03;;;2.90;;
43877;SDS011;29815;48.184;11.268;2022-10-18T12:51:56;6.20;;;3.03;;
43877;SDS011;29815;48.184;11.268;2022-10-18T12:54:30;5.20;;;2.75;;
43877;SDS011;29815;48.184;11.268;2022-10-18T12:57:04;7.65;;;3.22;;
43877;SDS011;29815;48.184;11.268;2022-10-18T12:59:50;7.05;;;3.67;;
43877;SDS011;29815;48.184;11.268;2022-10-18T13:02:25;8.05;;;3.28;;
43877;SDS011;29815;48.184;11.268;2022-10-18T13:04:59;10.38;;;3.47;;
43877;SDS011;29815;48.184;11.268;2022-10-18T13:11:28;6.93;;;3.15;;
43877;SDS011;29815;48.184;11.268;2022-10-18T13:14:08;8.48;;;3.40;;
43877;SDS011;29815;48.184;11.268;2022-10-18T13:17:30;4.70;;;2.92;;
43877;SDS011;29815;48.184;11.268;2022-10-18T13:20:11;12.85;;;3.88;;
43877;SDS011;29815;48.184;11.268;2022-10-18T13:22:59;9.93;;;3.60;;
43877;SDS011;29815;48.184;11.268;2022-10-18T13:25:46;8.93;;;3.70;;
43877;SDS011;29815;48.184;11.268;2022-10-18T13:28:29;6.10;;;3.25;;
43877;SDS011;29815;48.184;11.268;2022-10-18T13:31:11;6.47;;;3.65;;
43877;SDS011;29815;48.184;11.268;2022-10-18T13:33:49;6.68;;;3.40;;
43877;SDS011;29815;48.184;11.268;2022-10-18T13:36:19;6.40;;;3.90;;
43877;SDS011;29815;48.184;11.268;2022-10-18T13:39:03;7.38;;;3.15;;
43877;SDS011;29815;48.184;11.268;2022-10-18T13:51:30;6.75;;;3.63;;
43877;SDS011;29815;48.184;11.268;2022-10-18T13:54:22;5.57;;;3.78;;
43877;SDS011;29815;48.184;11.268;2022-10-18T13:57:25;7.28;;;3.70;;
43877;SDS011;29815;48.184;11.268;2022-10-18T14:00:17;9.55;;;4.10;;
43877;SDS011;29815;48.184;11.268;2022-10-18T14:03:28;7.47;;;3.30;;
43877;SDS011;29815;48.184;11.268;2022-10-18T14:06:41;6.60;;;3.47;;
43877;SDS011;29815;48.184;11.268;2022-10-18T14:14:47;7.97;;;3.35;;
43877;SDS011;29815;48.184;11.268;2022-10-18T14:17:30;9.25;;;3.10;;
43877;SDS011;29815;48.184;11.268;2022-10-18T14:22:56;7.15;;;2.92;;
43877;SDS011;29815;48.184;11.268;2022-10-18T14:25:33;7.85;;;3.15;;
43877;SDS011;29815;48.184;11.268;2022-10-18T14:28:06;6.72;;;2.85;;
43877;SDS011;29815;48.184;11.268;2022-10-18T14:30:51;13.13;;;3.53;;
43877;SDS011;29815;48.184;11.268;2022-10-18T14:33:24;9.38;;;2.80;;
43877;SDS011;29815;48.184;11.268;2022-10-18T14:36:06;4.55;;;2.67;;
43877;SDS011;29815;48.184;11.268;2022-10-18T14:41:19;7.65;;;3.13;;
43877;SDS011;29815;48.184;11.268;2022-10-18T14:43:53;6.45;;;2.90;;
43877;SDS011;29815;48.184;11.268;2022-10-18T14:46:46;7.40;;;3.45;;
43877;SDS011;29815;48.184;11.268;2022-10-18T14:49:18;8.93;;;3.45;;
43877;SDS011;29815;48.184;11.268;2022-10-18T14:51:50;8.52;;;3.17;;
43877;SDS011;29815;48.184;11.268;2022-10-18T14:54:23;4.85;;;2.83;;
43877;SDS011;29815;48.184;11.268;2022-10-18T14:56:58;9.15;;;3.08;;
43877;SDS011;29815;48.184;11.268;2022-10-18T14:59:30;6.05;;;2.58;;
43877;SDS011;29815;48.184;11.268;2022-10-18T15:02:10;5.90;;;3.30;;
43877;SDS011;29815;48.184;11.268;2022-10-18T15:04:44;6.45;;;2.95;;
43877;SDS011;29815;48.184;11.268;2022-10-18T15:07:16;9.45;;;3.60;;
43877;SDS011;29815;48.184;11.268;2022-10-18T15:09:46;6.50;;;2.92;;
43877;SDS011;29815;48.184;11.268;2022-10-18T15:12:16;8.05;;;3.90;;
43877;SDS011;29815;48.184;11.268;2022-10-18T15:14:46;10.10;;;3.25;;
43877;SDS011;29815;48.184;11.268;2022-10-18T15:17:19;6.30;;;3.47;;
43877;SDS011;29815;48.184;11.268;2022-10-18T15:19:55;7.35;;;3.92;;
43877;SDS011;29815;48.184;11.268;2022-10-18T15:22:34;7.05;;;3.25;;
43877;SDS011;29815;48.184;11.268;2022-10-18T15:25:14;7.18;;;3.08;;
43877;SDS011;29815;48.184;11.268;2022-10-18T15:27:46;4.90;;;3.33;;
43877;SDS011;29815;48.184;11.268;2022-10-18T15:30:23;6.25;;;3.28;;
43877;SDS011;29815;48.184;11.268;2022-10-18T15:32:56;8.30;;;3.50;;
43877;SDS011;29815;48.184;11.268;2022-10-18T15:35:30;7.90;;;4.03;;
43877;SDS011;29815;48.184;11.268;2022-10-18T15:38:13;9.35;;;4.28;;
43877;SDS011;29815;48.184;11.268;2022-10-18T15:40:49;8.23;;;4.88;;
43877;SDS011;29815;48.184;11.268;2022-10-18T15:43:32;7.88;;;4.32;;
43877;SDS011;29815;48.184;11.268;2022-10-18T15:46:25;8.05;;;4.03;;
43877;SDS011;29815;48.184;11.268;2022-10-18T15:52:34;5.82;;;4.03;;
43877;SDS011;29815;48.184;11.268;2022-10-18T15:58:25;9.32;;;4.65;;
43877;SDS011;29815;48.184;11.268;2022-10-18T16:00:58;9.07;;;4.70;;
43877;SDS011;29815;48.184;11.268;2022-10-18T16:03:31;6.40;;;4.97;;
43877;SDS011;29815;48.184;11.268;2022-10-18T16:06:03;9.82;;;6.03;;
43877;SDS011;29815;48.184;11.268;2022-10-18T16:08:41;10.70;;;5.88;;
43877;SDS011;29815;48.184;11.268;2022-10-18T16:11:15;15.35;;;5.97;;
43877;SDS011;29815;48.184;11.268;2022-10-18T16:13:47;8.07;;;6.45;;
43877;SDS011;29815;48.184;11.268;2022-10-18T16:16:23;9.88;;;6.72;;
43877;SDS011;29815;48.184;11.268;2022-10-18T16:18:56;9.32;;;6.10;;
43877;SDS011;29815;48.184;11.268;2022-10-18T16:21:27;8.07;;;5.50;;